Vattmanville, Texas
Current Conditions -  °F | °C
As of 12:19 PM on Thursday 18 Dec 2014 (Local Time) from KNQI Reporting Station
Broken Clouds Broken Clouds  
Wind Chill: 75°   Ceiling: 2500
Heat Index: 75°   Visibility: 9mi
Dew Point: 69°   Wind: 7mph
Humidity: 82%   Direction: 140°SE
Pressure: 30.03"   Gusts: NA
Location:  27.3193°N, 97.8839°W
Report Text: KNQI 181819Z 14006KT 9SM FEW015 BKN025TCU BKN075 BKN250 24/21 A3003 RMK AO2 TCU OHD T02390206
Loading
Personal Weather Stations






























Interactive Weather Map New forecast layout! Learn more

10-Day Weather Forecast

Advertisements
Track Severe Weather on mobile